Time;durP1;ratioP1;P1;durP2;ratioP2;P2;SDS_P1;SDS_P2;PMS_P1;PMS_P2;Temp;Humidity;BMP_temperature;BMP_pressure;BME280_temperature;BME280_humidity;BME280_pressure;Samples;Min_cycle;Max_cycle;Signal;HPM_P1;HPM_P2
2021/04/17 00:00:51;;;;;;;16.27;4.50;;;0.80;99.90;;;;;;4991998;28;20030;-83
2021/04/17 00:03:16;;;;;;;10.57;3.88;;;1.10;99.90;;;;;;4993143;28;20038;-84
2021/04/17 00:05:42;;;;;;;9.98;3.78;;;1.30;99.90;;;;;;5007314;28;20022;-83
2021/04/17 00:08:08;;;;;;;15.38;5.18;;;1.50;99.90;;;;;;4991922;28;20037;-83
2021/04/17 00:10:33;;;;;;;13.32;3.78;;;1.60;99.90;;;;;;4988368;28;20031;-83
2021/04/17 00:12:59;;;;;;;18.10;4.55;;;1.60;99.90;;;;;;4973540;28;20050;-83
2021/04/17 00:15:25;;;;;;;17.10;4.85;;;1.50;99.90;;;;;;4972383;28;20053;-84
2021/04/17 00:17:50;;;;;;;13.10;2.92;;;1.40;99.90;;;;;;4973800;28;20030;-83
2021/04/17 00:20:16;;;;;;;10.35;4.15;;;1.10;99.90;;;;;;4973542;28;20026;-83
2021/04/17 00:22:42;;;;;;;8.35;3.78;;;1.00;99.90;;;;;;4973493;28;20029;-83
2021/04/17 00:25:08;;;;;;;7.75;3.78;;;0.90;99.90;;;;;;4973528;28;20480;-83
2021/04/17 00:27:33;;;;;;;8.07;3.47;;;0.80;99.90;;;;;;4991432;28;20027;-83
2021/04/17 00:29:59;;;;;;;7.10;3.60;;;0.70;99.90;;;;;;4992856;28;20033;-83
2021/04/17 00:32:24;;;;;;;9.07;3.80;;;0.60;99.90;;;;;;4992675;28;20026;-83
2021/04/17 00:34:50;;;;;;;10.35;4.03;;;0.50;99.90;;;;;;4992060;28;20022;-83
2021/04/17 00:37:16;;;;;;;7.47;3.97;;;0.40;99.90;;;;;;4977287;28;20027;-83
2021/04/17 00:39:41;;;;;;;10.68;3.97;;;0.30;99.90;;;;;;4971934;28;20066;-83
2021/04/17 00:42:07;;;;;;;9.43;4.60;;;0.30;99.90;;;;;;4988450;28;20054;-83
2021/04/17 00:44:35;;;;;;;10.75;4.05;;;0.30;99.90;;;;;;4990679;28;20073;-83
2021/04/17 00:47:05;;;;;;;15.50;3.97;;;0.20;99.90;;;;;;4984424;28;20026;-83
2021/04/17 00:49:31;;;;;;;10.65;4.65;;;0.20;99.90;;;;;;4971882;28;20502;-83
2021/04/17 00:51:57;;;;;;;10.02;3.65;;;0.10;99.90;;;;;;4971758;28;20030;-83
2021/04/17 00:54:22;;;;;;;13.98;4.93;;;0.10;99.90;;;;;;4971248;28;20022;-83
2021/04/17 00:56:48;;;;;;;9.88;3.63;;;0.10;99.90;;;;;;4986665;28;20188;-83
2021/04/17 00:59:13;;;;;;;5.63;3.10;;;0.10;99.90;;;;;;4991556;28;20086;-83
2021/04/17 01:01:40;;;;;;;9.23;3.58;;;0.10;99.90;;;;;;4992243;28;20026;-83
2021/04/17 01:04:14;;;;;;;9.80;3.85;;;0.10;99.90;;;;;;4991562;28;20018;-83
2021/04/17 01:06:40;;;;;;;10.40;4.10;;;0.10;99.90;;;;;;4990530;28;20030;-84
2021/04/17 01:09:08;;;;;;;8.50;4.18;;;0.10;99.90;;;;;;4992177;28;20371;-83
2021/04/17 01:12:08;;;;;;;9.73;4.40;;;0.10;99.90;;;;;;4991646;28;20077;-83
2021/04/17 01:14:35;;;;;;;10.32;4.18;;;0.10;99.90;;;;;;4989129;28;20490;-83
2021/04/17 01:17:03;;;;;;;14.93;5.25;;;0.10;99.90;;;;;;4991463;28;20034;-83
2021/04/17 01:19:46;;;;;;;8.88;4.25;;;0.10;99.90;;;;;;4979638;28;20624;-83
2021/04/17 01:22:15;;;;;;;14.95;4.80;;;0.10;99.90;;;;;;4971428;28;20078;-83
2021/04/17 01:24:44;;;;;;;7.50;4.15;;;0.10;99.90;;;;;;4970770;28;20038;-83
2021/04/17 01:27:11;;;;;;;11.75;4.22;;;0.10;99.90;;;;;;4985284;28;20027;-83
2021/04/17 01:29:39;;;;;;;11.30;4.32;;;0.10;99.90;;;;;;4991312;28;20018;-83
2021/04/17 01:32:09;;;;;;;10.57;4.45;;;0.10;99.90;;;;;;4976485;28;20415;-83
2021/04/17 01:34:35;;;;;;;10.77;4.50;;;0.20;99.90;;;;;;4975889;28;20023;-83
2021/04/17 01:37:01;;;;;;;11.73;4.55;;;0.10;99.90;;;;;;4988265;28;20026;-83
2021/04/17 01:39:29;;;;;;;12.88;4.22;;;0.10;99.90;;;;;;4994550;28;20032;-83
2021/04/17 01:42:01;;;;;;;12.82;4.68;;;0.10;99.90;;;;;;5010297;28;20034;-83
2021/04/17 01:44:29;;;;;;;8.38;3.53;;;0.10;99.90;;;;;;4995003;28;20117;-83
2021/04/17 01:47:04;;;;;;;10.73;4.22;;;0.10;99.90;;;;;;4994401;28;20019;-83
2021/04/17 01:49:32;;;;;;;13.65;3.97;;;0.20;99.90;;;;;;4995873;28;20483;-83
2021/04/17 01:52:00;;;;;;;12.52;4.35;;;0.40;99.90;;;;;;4995468;28;20037;-83
2021/04/17 01:54:33;;;;;;;10.38;4.40;;;0.50;99.90;;;;;;5010106;28;20089;-83
2021/04/17 01:57:02;;;;;;;13.68;3.85;;;0.60;99.90;;;;;;4994871;28;20027;-83
2021/04/17 01:59:33;;;;;;;19.08;4.75;;;0.60;99.90;;;;;;4995599;28;20643;-83
2021/04/17 02:01:59;;;;;;;11.68;4.57;;;0.80;99.90;;;;;;4994269;28;20410;-83
2021/04/17 02:04:24;;;;;;;9.25;4.03;;;0.80;99.90;;;;;;4993494;28;20026;-83
2021/04/17 02:06:50;;;;;;;12.82;3.78;;;0.80;99.90;;;;;;4993745;28;20058;-83
2021/04/17 02:09:15;;;;;;;13.95;4.82;;;0.80;99.90;;;;;;4993921;28;20034;-83
2021/04/17 02:11:41;;;;;;;10.93;4.47;;;1.00;99.90;;;;;;4987308;28;20033;-83
2021/04/17 02:14:07;;;;;;;12.32;4.45;;;1.10;99.90;;;;;;4993156;28;20400;-83
2021/04/17 02:17:00;;;;;;;13.43;3.80;;;1.30;99.90;;;;;;4993369;28;20027;-83
2021/04/17 02:19:39;;;;;;;30.13;4.97;;;1.30;99.90;;;;;;4993974;28;20044;-83
2021/04/17 02:22:06;;;;;;;9.75;3.83;;;1.50;99.90;;;;;;4994907;28;20031;-83
2021/04/17 02:24:33;;;;;;;8.02;3.20;;;1.50;99.90;;;;;;5009694;28;20435;-83
2021/04/17 02:26:59;;;;;;;12.63;4.30;;;1.60;99.90;;;;;;4993553;28;20030;-83
2021/04/17 02:29:25;;;;;;;17.50;4.88;;;1.50;99.90;;;;;;4995022;28;20108;-83
2021/04/17 02:31:51;;;;;;;10.32;3.53;;;1.60;99.90;;;;;;4994981;28;20110;-83
2021/04/17 02:34:19;;;;;;;13.10;5.30;;;1.60;99.90;;;;;;4993089;28;20027;-83
2021/04/17 02:36:44;;;;;;;9.85;3.83;;;1.70;99.90;;;;;;4989933;28;20503;-83
2021/04/17 02:39:10;;;;;;;10.52;4.03;;;1.70;99.90;;;;;;4974067;28;20115;-83
2021/04/17 02:41:36;;;;;;;18.90;4.97;;;1.70;99.90;;;;;;4974591;28;20038;-83
2021/04/17 02:44:03;;;;;;;9.60;4.00;;;1.60;99.90;;;;;;4973242;28;20031;-83
2021/04/17 02:46:29;;;;;;;16.20;4.82;;;1.70;99.90;;;;;;4981528;28;20030;-83
2021/04/17 02:48:54;;;;;;;15.10;3.78;;;1.70;99.90;;;;;;4994721;28;20022;-83
2021/04/17 02:51:20;;;;;;;11.80;4.35;;;1.80;99.90;;;;;;4993052;28;20034;-83
2021/04/17 02:53:45;;;;;;;9.50;4.40;;;1.90;99.90;;;;;;4992517;28;20076;-83
2021/04/17 02:56:11;;;;;;;8.63;3.55;;;2.00;99.90;;;;;;4984150;28;20035;-83
2021/04/17 02:58:36;;;;;;;12.57;4.95;;;2.10;99.90;;;;;;4975119;28;20038;-83
2021/04/17 03:01:03;;;;;;;8.48;3.53;;;2.10;99.90;;;;;;4973790;28;20033;-84
2021/04/17 03:03:28;;;;;;;19.50;4.20;;;2.10;99.90;;;;;;4975029;28;20029;-83
2021/04/17 03:05:54;;;;;;;12.65;5.35;;;2.10;99.90;;;;;;4973705;28;20433;-83
2021/04/17 03:08:19;;;;;;;17.92;4.10;;;2.10;99.90;;;;;;4973681;28;20510;-84
2021/04/17 03:10:45;;;;;;;11.90;4.60;;;2.10;99.90;;;;;;4992423;28;20027;-83
2021/04/17 03:13:11;;;;;;;9.00;4.60;;;2.20;99.90;;;;;;4974794;28;20073;-83
2021/04/17 03:15:37;;;;;;;17.13;5.03;;;2.20;99.90;;;;;;4974165;28;20037;-83
2021/04/17 03:18:03;;;;;;;16.10;4.15;;;2.20;99.90;;;;;;4977483;28;20550;-83
2021/04/17 03:20:29;;;;;;;9.57;3.80;;;2.10;99.90;;;;;;4993659;28;20399;-83
2021/04/17 03:22:54;;;;;;;18.38;4.93;;;2.10;99.90;;;;;;4994145;28;20034;-83
2021/04/17 03:25:20;;;;;;;13.20;4.50;;;2.00;99.90;;;;;;4993094;28;20487;-84
2021/04/17 03:27:46;;;;;;;9.32;4.20;;;1.90;99.90;;;;;;4992695;28;20039;-83
2021/04/17 03:30:15;;;;;;;10.35;4.25;;;1.80;99.90;;;;;;4993849;28;20031;-83
2021/04/17 03:32:41;;;;;;;10.05;4.32;;;1.80;99.90;;;;;;4993769;28;20547;-83
2021/04/17 03:35:08;;;;;;;9.48;3.85;;;1.90;99.90;;;;;;4993294;28;20177;-83
2021/04/17 03:37:34;;;;;;;11.98;4.03;;;2.00;99.90;;;;;;4990250;28;20026;-83
2021/04/17 03:39:59;;;;;;;14.27;4.63;;;2.00;99.90;;;;;;4993046;28;20044;-83
2021/04/17 03:42:25;;;;;;;9.93;3.85;;;2.00;99.90;;;;;;4993316;28;20503;-83
2021/04/17 03:44:50;;;;;;;12.07;4.55;;;2.00;99.90;;;;;;4993047;28;20026;-83
2021/04/17 03:47:16;;;;;;;13.32;4.05;;;2.10;99.90;;;;;;4993245;28;20030;-83
2021/04/17 03:49:42;;;;;;;21.00;4.10;;;2.10;99.90;;;;;;5008299;28;20030;-83
2021/04/17 03:52:07;;;;;;;11.55;4.32;;;2.10;99.90;;;;;;4991604;28;20395;-83
2021/04/17 03:54:33;;;;;;;11.05;4.35;;;2.10;99.90;;;;;;5007802;28;20032;-83
2021/04/17 03:56:59;;;;;;;10.00;5.05;;;2.20;99.90;;;;;;4977928;28;20031;-83
2021/04/17 03:59:24;;;;;;;16.85;4.50;;;2.30;99.90;;;;;;4973967;28;20034;-83
2021/04/17 04:01:50;;;;;;;19.35;4.43;;;2.20;99.90;;;;;;4972593;28;20030;-82
2021/04/17 04:04:15;;;;;;;19.15;5.25;;;2.30;99.90;;;;;;4973040;28;20407;-83
2021/04/17 04:06:41;;;;;;;17.75;4.53;;;2.20;99.90;;;;;;4983923;28;20506;-83
2021/04/17 04:09:07;;;;;;;16.77;4.68;;;2.20;99.90;;;;;;4991905;28;20023;-83
2021/04/17 04:11:32;;;;;;;12.02;4.55;;;2.20;99.90;;;;;;4981331;28;20049;-83
2021/04/17 04:13:58;;;;;;;8.98;4.35;;;2.20;99.90;;;;;;4971749;28;20038;-83
2021/04/17 04:16:24;;;;;;;15.05;4.60;;;2.20;99.90;;;;;;4977220;28;20058;-83
2021/04/17 04:18:49;;;;;;;16.90;5.00;;;2.20;99.90;;;;;;4992948;28;20034;-83
2021/04/17 04:21:15;;;;;;;12.20;5.78;;;2.20;99.90;;;;;;5008034;28;20395;-83
2021/04/17 04:23:40;;;;;;;16.77;4.55;;;2.20;99.90;;;;;;4992318;28;20029;-83
2021/04/17 04:26:06;;;;;;;18.05;5.53;;;2.20;99.90;;;;;;4992354;28;20076;-83
2021/04/17 04:28:32;;;;;;;18.65;5.13;;;2.30;99.90;;;;;;4992801;28;20030;-83
2021/04/17 04:30:58;;;;;;;13.68;4.95;;;2.30;99.90;;;;;;4991578;28;20034;-83
2021/04/17 04:33:23;;;;;;;10.70;4.82;;;2.40;99.90;;;;;;4991345;28;20081;-83
2021/04/17 04:35:49;;;;;;;17.80;5.57;;;2.40;99.90;;;;;;4988727;28;20431;-83
2021/04/17 04:38:16;;;;;;;26.13;5.78;;;2.40;99.90;;;;;;4972037;28;20077;-83
2021/04/17 04:40:42;;;;;;;22.80;6.22;;;2.40;99.90;;;;;;4977750;28;20549;-83
2021/04/17 04:43:09;;;;;;;19.80;5.65;;;2.40;99.90;;;;;;5007693;28;20034;-83
2021/04/17 04:45:35;;;;;;;13.88;6.25;;;2.40;99.90;;;;;;4990648;28;20026;-83
2021/04/17 04:48:00;;;;;;;21.70;7.35;;;2.50;99.90;;;;;;4992259;28;20045;-82
2021/04/17 04:50:26;;;;;;;16.90;5.85;;;2.50;99.90;;;;;;4991464;28;20031;-82
2021/04/17 04:52:51;;;;;;;17.10;5.65;;;2.50;99.90;;;;;;4992292;28;20080;-82
2021/04/17 04:55:17;;;;;;;17.42;6.15;;;2.50;99.90;;;;;;4989963;28;20084;-82
2021/04/17 04:57:42;;;;;;;18.80;6.25;;;2.50;99.90;;;;;;4971874;28;20076;-83
2021/04/17 05:00:09;;;;;;;15.75;5.85;;;2.50;99.90;;;;;;4971741;28;20061;-82
2021/04/17 05:02:34;;;;;;;11.82;5.82;;;2.50;99.90;;;;;;4971298;28;20566;-82
2021/04/17 05:05:00;;;;;;;17.13;5.95;;;2.50;99.90;;;;;;4972246;28;20157;-82
2021/04/17 05:07:26;;;;;;;18.85;5.28;;;2.60;99.90;;;;;;4988369;28;20033;-82
2021/04/17 05:09:51;;;;;;;17.83;5.70;;;2.60;99.90;;;;;;4972823;28;20027;-82
2021/04/17 05:12:17;;;;;;;18.88;6.80;;;2.60;99.90;;;;;;4990193;28;20482;-82
2021/04/17 05:14:42;;;;;;;20.48;7.32;;;2.60;99.90;;;;;;4991495;28;20032;-82
2021/04/17 05:17:08;;;;;;;17.40;5.65;;;2.60;99.90;;;;;;4987402;28;20026;-83
2021/04/17 05:19:33;;;;;;;18.88;6.53;;;2.60;99.90;;;;;;4973167;28;20035;-83
2021/04/17 05:21:59;;;;;;;22.20;5.68;;;2.60;99.90;;;;;;4987677;28;20027;-82
2021/04/17 05:24:24;;;;;;;15.40;5.95;;;2.70;99.90;;;;;;4970813;28;20026;-82
2021/04/17 05:26:50;;;;;;;16.40;6.55;;;2.70;99.90;;;;;;4971694;28;20027;-83
2021/04/17 05:29:15;;;;;;;16.00;6.05;;;2.70;99.90;;;;;;4971479;28;20033;-82
2021/04/17 05:31:41;;;;;;;17.75;6.22;;;2.70;99.90;;;;;;4971402;28;20117;-82
2021/04/17 05:34:07;;;;;;;15.40;6.70;;;2.70;99.90;;;;;;4971917;28;20039;-82
2021/04/17 05:36:34;;;;;;;16.23;5.80;;;2.80;99.90;;;;;;4981398;28;20068;-82
2021/04/17 05:39:00;;;;;;;17.45;6.50;;;2.80;99.90;;;;;;4990702;28;20517;-83
2021/04/17 05:41:26;;;;;;;15.95;5.72;;;2.90;99.90;;;;;;4991293;28;20031;-82
2021/04/17 05:43:51;;;;;;;19.67;7.13;;;2.90;99.90;;;;;;4989939;28;20034;-83
2021/04/17 05:46:17;;;;;;;13.35;5.93;;;3.10;99.90;;;;;;4991605;28;20015;-82
2021/04/17 05:48:43;;;;;;;22.25;6.28;;;3.20;99.90;;;;;;4990656;28;20029;-82
2021/04/17 05:51:08;;;;;;;11.60;5.97;;;3.30;99.90;;;;;;4990635;28;20026;-82
2021/04/17 05:53:34;;;;;;;20.75;6.15;;;3.50;99.90;;;;;;4991671;28;20034;-83
2021/04/17 05:55:59;;;;;;;14.95;5.03;;;3.60;99.90;;;;;;4983958;28;20073;-83
2021/04/17 05:58:25;;;;;;;12.68;6.15;;;3.70;99.90;;;;;;4971183;28;20505;-83
2021/04/17 06:00:50;;;;;;;18.67;6.22;;;3.80;99.90;;;;;;4972759;28;20109;-82
2021/04/17 06:03:16;;;;;;;17.73;6.63;;;4.00;99.90;;;;;;4972310;28;20055;-83
2021/04/17 06:05:41;;;;;;;13.52;6.05;;;4.10;99.90;;;;;;4966930;28;20121;-81
2021/04/17 06:08:07;;;;;;;16.58;5.97;;;4.20;99.90;;;;;;4986656;28;20025;-81
2021/04/17 06:10:32;;;;;;;18.83;5.88;;;4.30;99.90;;;;;;5001338;28;20093;-81
2021/04/17 06:12:58;;;;;;;12.15;5.20;;;4.30;99.90;;;;;;4987085;28;20046;-81
2021/04/17 06:15:24;;;;;;;19.05;5.22;;;4.20;99.90;;;;;;4988089;28;20035;-82
2021/04/17 06:17:50;;;;;;;11.80;5.05;;;4.40;99.90;;;;;;4989480;28;20037;-83
2021/04/17 06:20:15;;;;;;;13.73;5.03;;;4.50;99.90;;;;;;4990572;28;20026;-81
2021/04/17 06:22:41;;;;;;;16.50;5.60;;;4.60;99.90;;;;;;4988695;28;20049;-82
2021/04/17 06:25:08;;;;;;;19.30;6.25;;;4.60;99.90;;;;;;4989945;28;20061;-81
2021/04/17 06:27:34;;;;;;;11.60;5.15;;;4.60;99.90;;;;;;4982611;28;20033;-81
2021/04/17 06:30:00;;;;;;;12.90;4.95;;;4.70;99.90;;;;;;4990985;28;20031;-82
2021/04/17 06:32:25;;;;;;;15.80;5.35;;;4.80;99.90;;;;;;4989819;28;20085;-81
2021/04/17 06:34:51;;;;;;;21.83;5.63;;;4.90;99.90;;;;;;4991890;28;20014;-82
2021/04/17 06:37:19;;;;;;;15.90;5.25;;;4.90;99.90;;;;;;4986179;28;20073;-83
2021/04/17 06:39:45;;;;;;;17.02;4.75;;;4.90;99.90;;;;;;4990352;28;20053;-82
2021/04/17 06:42:13;;;;;;;12.63;5.28;;;5.00;99.90;;;;;;5005700;28;20038;-82
2021/04/17 06:44:42;;;;;;;14.95;5.40;;;5.20;99.90;;;;;;4989396;28;20037;-82
2021/04/17 06:47:09;;;;;;;11.60;5.40;;;5.30;99.90;;;;;;4990648;28;20038;-83
2021/04/17 06:49:37;;;;;;;13.13;5.05;;;5.50;99.90;;;;;;4990122;28;20026;-82
2021/04/17 06:52:03;;;;;;;14.88;5.85;;;5.70;99.90;;;;;;4991082;28;20029;-83
2021/04/17 06:54:29;;;;;;;17.52;5.20;;;5.90;99.90;;;;;;4989711;28;20402;-82
2021/04/17 06:56:55;;;;;;;14.52;4.22;;;6.00;99.90;;;;;;4986215;28;20136;-82
2021/04/17 06:59:20;;;;;;;11.48;4.65;;;6.00;99.90;;;;;;4991206;28;20133;-82
2021/04/17 07:01:47;;;;;;;14.15;4.70;;;6.20;99.90;;;;;;4989103;28;20037;-81
2021/04/17 07:04:14;;;;;;;14.55;4.65;;;6.30;99.90;;;;;;5005372;28;20417;-83
2021/04/17 07:06:40;;;;;;;10.48;4.68;;;6.40;99.90;;;;;;4989207;28;20038;-81
2021/04/17 07:09:06;;;;;;;8.75;4.05;;;6.50;99.90;;;;;;4989756;28;20022;-82
2021/04/17 07:11:32;;;;;;;11.38;4.60;;;6.50;99.90;;;;;;4985845;28;20121;-83
2021/04/17 07:14:13;;;;;;;13.70;4.85;;;6.60;99.90;;;;;;4990332;28;20101;-84
2021/04/17 07:16:59;;;;;;;18.95;4.97;;;6.50;99.90;;;;;;4990655;28;20027;-83
2021/04/17 07:19:46;;;;;;;14.60;5.43;;;6.40;99.90;;;;;;4988883;28;20129;-83
2021/04/17 07:22:25;;;;;;;20.95;5.05;;;6.30;99.90;;;;;;4993878;28;20034;-83
2021/04/17 07:24:55;;;;;;;12.13;4.70;;;6.30;99.90;;;;;;4993173;28;20048;-82
2021/04/17 07:27:39;;;;;;;11.45;4.70;;;6.20;99.90;;;;;;4993629;28;20053;-83
2021/04/17 07:30:16;;;;;;;12.43;4.18;;;6.40;99.90;;;;;;4992623;28;20117;-83
2021/04/17 07:32:44;;;;;;;9.10;4.07;;;6.30;99.90;;;;;;4992418;28;20027;-83
2021/04/17 07:35:20;;;;;;;9.07;4.47;;;6.30;99.90;;;;;;4993178;28;20050;-83
2021/04/17 07:37:47;;;;;;;18.38;4.22;;;6.50;99.90;;;;;;4973570;28;20027;-83
2021/04/17 07:40:16;;;;;;;14.80;4.50;;;6.60;99.90;;;;;;4973333;28;20022;-83
2021/04/17 07:42:48;;;;;;;10.93;3.97;;;6.80;99.90;;;;;;4992156;28;20054;-83
2021/04/17 07:45:34;;;;;;;14.05;4.28;;;6.90;99.90;;;;;;4993183;28;20030;-83
2021/04/17 07:48:18;;;;;;;19.38;4.15;;;7.00;99.90;;;;;;4992012;28;20050;-83
2021/04/17 07:50:44;;;;;;;15.38;4.38;;;7.20;99.90;;;;;;4993565;28;20252;-83
2021/04/17 07:53:32;;;;;;;10.23;3.80;;;7.60;99.90;;;;;;4992294;28;20038;-84
2021/04/17 07:56:34;;;;;;;9.95;3.97;;;7.90;99.90;;;;;;5007199;28;20117;-83
2021/04/17 07:59:04;;;;;;;10.00;4.15;;;8.20;99.90;;;;;;4993416;28;20041;-83
2021/04/17 08:01:32;;;;;;;7.63;3.38;;;8.50;99.90;;;;;;4991786;28;20034;-83
2021/04/17 08:03:59;;;;;;;8.38;3.85;;;8.60;99.90;;;;;;4992575;28;20042;-83
2021/04/17 08:06:26;;;;;;;8.88;4.35;;;8.70;99.90;;;;;;5007877;28;20105;-83
2021/04/17 08:08:53;;;;;;;11.25;3.38;;;8.60;99.90;;;;;;4988615;28;20026;-83
2021/04/17 08:11:20;;;;;;;12.38;4.28;;;8.90;99.90;;;;;;4993179;28;20037;-83
2021/04/17 08:13:48;;;;;;;7.93;3.22;;;8.80;99.90;;;;;;4987680;28;20466;-84
2021/04/17 08:16:15;;;;;;;8.93;3.03;;;8.90;99.90;;;;;;4985205;28;20487;-83
2021/04/17 08:18:41;;;;;;;15.60;3.05;;;9.40;99.90;;;;;;4992425;28;20125;-83
2021/04/17 08:21:08;;;;;;;17.58;7.22;;;9.70;99.90;;;;;;4992559;28;20026;-83
2021/04/17 08:23:36;;;;;;;10.45;3.65;;;10.00;99.90;;;;;;4999825;28;20498;-83
2021/04/17 08:26:03;;;;;;;113.78;40.78;;;10.20;99.90;;;;;;4991059;28;20029;-84
2021/04/17 08:28:29;;;;;;;100.60;25.55;;;10.10;99.90;;;;;;4973439;28;20015;-83
2021/04/17 08:31:24;;;;;;;9.05;3.70;;;10.20;99.90;;;;;;4988138;28;20094;-84
2021/04/17 08:34:14;;;;;;;18.08;5.10;;;10.50;99.90;;;;;;4987504;28;20038;-83
2021/04/17 08:36:42;;;;;;;11.25;2.78;;;10.90;99.90;;;;;;4972480;28;20081;-85
2021/04/17 08:39:33;;;;;;;9.50;2.58;;;11.00;99.90;;;;;;4986011;28;20557;-83
2021/04/17 08:42:00;;;;;;;12.32;3.17;;;11.20;99.90;;;;;;4992479;28;20038;-85
2021/04/17 08:44:31;;;;;;;6.70;2.40;;;11.30;99.90;;;;;;4991924;28;20039;-86
2021/04/17 08:46:58;;;;;;;13.38;4.13;;;11.00;99.90;;;;;;4991257;28;20025;-85
2021/04/17 08:49:26;;;;;;;12.13;3.90;;;11.00;99.90;;;;;;4991026;28;20083;-84
2021/04/17 08:52:19;;;;;;;12.45;2.53;;;11.10;99.90;;;;;;4991080;28;20085;-85
2021/04/17 08:54:45;;;;;;;8.13;2.60;;;11.20;99.90;;;;;;4972169;28;20031;-83
2021/04/17 08:57:18;;;;;;;16.38;3.75;;;11.40;99.90;;;;;;4972951;28;20151;-83
2021/04/17 08:59:53;;;;;;;6.63;2.60;;;11.50;99.90;;;;;;4971731;28;20030;-84
2021/04/17 09:02:19;;;;;;;34.13;14.55;;;11.50;99.90;;;;;;4971667;28;20360;-86
2021/04/17 09:04:58;;;;;;;6.22;2.72;;;11.30;99.90;;;;;;4985548;28;20029;-86
2021/04/17 09:07:24;;;;;;;8.52;2.50;;;11.10;99.90;;;;;;4973212;28;20023;-85
2021/04/17 09:09:49;;;;;;;11.52;2.90;;;11.10;99.90;;;;;;4972920;28;20030;-85
2021/04/17 09:12:17;;;;;;;41.13;5.30;;;11.10;99.90;;;;;;4972713;28;20105;-84
2021/04/17 09:14:56;;;;;;;8.07;2.63;;;10.90;99.90;;;;;;4980432;28;20038;-83
2021/04/17 09:17:31;;;;;;;5.70;2.50;;;10.70;99.90;;;;;;4972748;28;20026;-85
2021/04/17 09:19:58;;;;;;;10.45;2.60;;;10.80;99.90;;;;;;4972586;28;20025;-86
2021/04/17 09:22:33;;;;;;;7.30;3.42;;;10.90;99.90;;;;;;4987751;28;20034;-85
2021/04/17 09:25:11;;;;;;;9.32;2.45;;;11.00;99.90;;;;;;4990087;28;20022;-84
2021/04/17 09:27:43;;;;;;;28.08;5.35;;;11.10;99.90;;;;;;4990836;28;20391;-83
2021/04/17 09:30:28;;;;;;;42.30;7.80;;;11.20;99.90;;;;;;4991959;28;20060;-81
2021/04/17 09:32:56;;;;;;;8.75;3.78;;;11.30;99.90;;;;;;5006679;28;20023;-83
2021/04/17 09:35:28;;;;;;;8.02;2.80;;;11.20;99.90;;;;;;5005675;28;20014;-82
2021/04/17 09:38:09;;;;;;;4.40;1.83;;;11.20;99.90;;;;;;4987378;28;20443;-85
2021/04/17 09:40:50;;;;;;;7.82;2.80;;;11.20;99.90;;;;;;4971341;28;20034;-83
2021/04/17 09:43:37;;;;;;;14.80;6.57;;;11.60;99.90;;;;;;4971340;28;20117;-83
2021/04/17 09:46:14;;;;;;;10.15;2.63;;;12.10;99.90;;;;;;4970792;28;20030;-79
2021/04/17 09:48:42;;;;;;;11.45;2.97;;;12.40;99.90;;;;;;4971929;28;20122;-83
2021/04/17 09:51:26;;;;;;;7.88;1.70;;;12.30;99.90;;;;;;4976343;28;20038;-82
2021/04/17 09:53:52;;;;;;;;;;;12.40;99.90;;;;;;4983524;28;20065;-81
2021/04/17 09:56:41;;;;;;;4.00;1.75;;;11.90;99.90;;;;;;4976046;28;20016;-81
2021/04/17 09:59:10;;;;;;;5.90;1.58;;;12.00;99.90;;;;;;4976218;28;20109;-82
2021/04/17 10:01:35;;;;;;;9.35;1.88;;;11.90;99.90;;;;;;4976065;28;20023;-81
2021/04/17 10:04:01;;;;;;;6.95;2.05;;;12.00;99.90;;;;;;4975527;28;20026;-82
2021/04/17 10:06:29;;;;;;;4.18;1.52;;;12.10;99.90;;;;;;4975945;28;20030;-81
2021/04/17 10:08:56;;;;;;;7.78;2.47;;;12.20;99.90;;;;;;4987984;28;20030;-80
2021/04/17 10:11:27;;;;;;;8.50;2.20;;;12.30;99.90;;;;;;4995320;28;20041;-81
2021/04/17 10:13:54;;;;;;;9.10;1.90;;;12.50;99.90;;;;;;5009498;28;20406;-80
2021/04/17 10:16:25;;;;;;;6.50;1.95;;;12.70;99.90;;;;;;4994049;28;20084;-80
2021/04/17 10:18:51;;;;;;;10.88;2.20;;;12.70;99.90;;;;;;4995517;28;20025;-80
2021/04/17 10:21:26;;;;;;;8.27;2.17;;;12.90;99.90;;;;;;4993824;28;20030;-80
2021/04/17 10:24:15;;;;;;;7.78;2.28;;;12.90;99.90;;;;;;4991794;28;20571;-79
2021/04/17 10:26:55;;;;;;;9.07;2.53;;;13.00;99.90;;;;;;5010145;28;20030;-81
2021/04/17 10:29:35;;;;;;;3.97;1.88;;;13.50;99.90;;;;;;4993815;28;20029;-80
2021/04/17 10:32:11;;;;;;;12.50;3.15;;;14.10;99.90;;;;;;4993751;28;20026;-81
2021/04/17 10:34:37;;;;;;;6.30;2.17;;;14.10;99.90;;;;;;4993874;28;20041;-81
2021/04/17 10:37:07;;;;;;;8.13;3.08;;;13.90;99.90;;;;;;4995009;28;20033;-81
2021/04/17 10:39:33;;;;;;;4.80;1.92;;;14.10;99.90;;;;;;4992209;28;20097;-81
2021/04/17 10:42:08;;;;;;;14.82;3.97;;;14.00;99.90;;;;;;4975283;28;20058;-80
2021/04/17 10:44:35;;;;;;;17.02;6.50;;;13.60;99.90;;;;;;4988561;28;20551;-81
2021/04/17 10:47:02;;;;;;;5.30;2.55;;;12.90;99.90;;;;;;4994803;28;20042;-81
2021/04/17 10:49:37;;;;;;;8.35;3.58;;;13.10;99.90;;;;;;4994770;28;20027;-80
2021/04/17 10:52:25;;;;;;;2.88;2.00;;;13.30;99.90;;;;;;4994655;28;20494;-80
2021/04/17 10:54:52;;;;;;;6.47;2.35;;;13.00;99.90;;;;;;4969984;28;20464;-80
2021/04/17 10:57:17;;;;;;;12.48;2.08;;;12.90;99.90;;;;;;4973939;28;20114;-80
2021/04/17 11:00:01;;;;;;;8.43;1.95;;;12.80;99.90;;;;;;4989598;28;20101;-81
2021/04/17 11:02:29;;;;;;;;;;;12.70;99.90;;;;;;4973992;28;20461;-79
2021/04/17 11:04:55;;;;;;;9.02;2.22;;;13.30;99.90;;;;;;4974525;28;19937;-80
2021/04/17 11:07:29;;;;;;;23.40;5.53;;;13.50;99.90;;;;;;4974875;28;20436;-81
2021/04/17 11:09:54;;;;;;;15.52;4.30;;;14.10;99.90;;;;;;4974879;28;20054;-80
2021/04/17 11:12:29;;;;;;;4.53;2.00;;;14.30;99.90;;;;;;4974906;28;20093;-81
2021/04/17 11:15:18;;;;;;;8.50;1.90;;;14.40;99.90;;;;;;4988828;28;20030;-80
2021/04/17 11:18:04;;;;;;;8.45;1.92;;;14.30;99.90;;;;;;4994281;28;20026;-81
2021/04/17 11:20:29;;;;;;;7.15;2.55;;;14.40;99.90;;;;;;4992601;28;20514;-81
2021/04/17 11:22:55;;;;;;;6.38;2.60;;;14.40;99.90;;;;;;4989485;28;20031;-81
2021/04/17 11:25:20;;;;;;;9.13;2.92;;;14.70;99.90;;;;;;4974081;28;20034;-81
2021/04/17 11:27:45;;;;;;;5.40;1.95;;;14.40;99.90;;;;;;4979848;28;20038;-80
2021/04/17 11:30:12;;;;;;;5.78;1.90;;;14.70;99.90;;;;;;4988401;28;20499;-83
2021/04/17 11:32:39;;;;;;;5.15;1.98;;;15.00;99.90;;;;;;4988549;28;20077;-82
2021/04/17 11:35:08;;;;;;;9.07;1.80;;;14.80;99.90;;;;;;4988721;28;20030;-82
2021/04/17 11:37:34;;;;;;;14.73;2.20;;;14.90;99.90;;;;;;4986705;28;20040;-81
2021/04/17 11:40:00;;;;;;;5.07;1.70;;;15.20;99.90;;;;;;4983015;28;20495;-82
2021/04/17 11:42:26;;;;;;;7.05;2.13;;;15.30;99.90;;;;;;4989251;28;20042;-83
2021/04/17 11:44:56;;;;;;;11.73;2.72;;;15.70;99.90;;;;;;5003375;28;20038;-82
2021/04/17 11:47:21;;;;;;;5.57;1.88;;;15.80;99.90;;;;;;4988192;28;20034;-84
2021/04/17 11:49:47;;;;;;;5.32;2.05;;;16.30;99.90;;;;;;4989656;28;20513;-84
2021/04/17 11:52:13;;;;;;;7.93;2.13;;;16.60;99.90;;;;;;4988386;28;20073;-84
2021/04/17 11:54:38;;;;;;;3.47;1.88;;;16.00;99.90;;;;;;4987053;28;20068;-83
2021/04/17 11:57:04;;;;;;;5.80;2.42;;;15.40;99.90;;;;;;4984981;28;20046;-84
2021/04/17 11:59:30;;;;;;;12.80;2.20;;;15.40;99.90;;;;;;4988302;28;20065;-84
2021/04/17 12:01:55;;;;;;;9.45;1.95;;;15.80;99.90;;;;;;4988124;28;20479;-85
2021/04/17 12:04:22;;;;;;;3.95;1.98;;;16.20;98.80;;;;;;4987351;28;20037;-84
2021/04/17 12:06:50;;;;;;;5.53;2.22;;;16.20;98.70;;;;;;4988306;28;20037;-83
2021/04/17 12:09:16;;;;;;;5.50;1.58;;;16.90;99.90;;;;;;4981978;28;20031;-83
2021/04/17 12:11:41;;;;;;;6.45;2.20;;;17.40;93.60;;;;;;4987504;28;20037;-83
2021/04/17 12:14:08;;;;;;;5.50;1.98;;;17.70;94.30;;;;;;4988285;28;20054;-83
2021/04/17 12:16:33;;;;;;;9.98;1.90;;;18.10;93.10;;;;;;4986350;28;20050;-83
2021/04/17 12:18:59;;;;;;;8.95;2.30;;;18.70;91.10;;;;;;4987925;28;20483;-82
2021/04/17 12:21:24;;;;;;;11.18;2.00;;;18.90;83.00;;;;;;4988054;28;20025;-84
2021/04/17 12:23:50;;;;;;;8.73;2.15;;;19.00;76.30;;;;;;4984890;28;20414;-84
2021/04/17 12:26:16;;;;;;;6.72;2.40;;;18.80;72.80;;;;;;4988872;28;20025;-83
2021/04/17 12:28:41;;;;;;;10.02;2.88;;;18.20;79.20;;;;;;4988844;28;20022;-83
2021/04/17 12:31:07;;;;;;;5.35;1.88;;;18.20;72.30;;;;;;4993148;28;20026;-83
2021/04/17 12:33:32;;;;;;;10.90;2.63;;;18.80;80.30;;;;;;4992508;28;20502;-83
2021/04/17 12:35:58;;;;;;;9.30;2.70;;;18.80;71.70;;;;;;4992292;28;20034;-83
2021/04/17 12:38:23;;;;;;;10.75;2.92;;;18.80;75.80;;;;;;4982050;28;20037;-83
2021/04/17 12:40:54;;;;;;;7.15;2.13;;;19.20;74.80;;;;;;4992543;28;20054;-84
2021/04/17 12:43:20;;;;;;;8.10;2.10;;;19.00;65.90;;;;;;5007777;28;20045;-84
2021/04/17 12:45:45;;;;;;;9.63;2.05;;;19.40;70.30;;;;;;5006807;28;20026;-83
2021/04/17 12:48:11;;;;;;;7.60;2.63;;;19.90;70.70;;;;;;4992531;28;20031;-83
2021/04/17 12:50:36;;;;;;;6.78;2.40;;;20.10;68.50;;;;;;4991229;28;20066;-83
2021/04/17 12:53:03;;;;;;;5.63;2.00;;;20.20;61.90;;;;;;5007008;28;20030;-84
2021/04/17 12:55:28;;;;;;;8.30;1.88;;;20.70;65.20;;;;;;4991671;28;20030;-84